»·PEaware :: N75232 KBFL-KMHV

N75232 :: KBFL-KMHV

FLIGHT INFORMATION

Flight Status: Arrived
Operator: Privately registered:
United States
More flights under this callsign
Pilot: Daniel B. (28719)
Aircraft: CESSNA 172 SKYHAWK
(C172)
More flights by this aircraft type
Origin: KBFL Meadows
United States
Destination: KMHV Mojave
United States
More flights between these airports :: More routes between these airports
Route: +
File this flight plan on PilotEdge
Remarks: CAT6
Altitude:
(Current/Filed)
0ft
Speed:
(Current/Filed)
0kts
Departed: 10-Apr-20 06:41 PM
Arrived: 10-Apr-20 07:13 PM
Distance/Time
Traveled:
50nm/0:32
Distance/Time
To Go:
Arrived

Flight Plot

Page will automatically refresh every two minutes.


Map Options




Map Legend


Flown Route
Filed Route
Departure Airport
Arrival Airport
Navaid (VOR, NDB)
Fix

Horizontal Profiles

Position Reports

Time Latitude Longitude Heading Altitude Ground
Speed
10-Apr-20 18:28 35.435638 -119.052190 197 503ft 0kts
10-Apr-20 18:29 35.435638 -119.052190 197 503ft 0kts
10-Apr-20 18:30 35.435638 -119.052190 197 503ft 0kts
10-Apr-20 18:31 35.435468 -119.053282 248 500ft 7kts
10-Apr-20 18:32 35.433867 -119.053985 134 492ft 12kts
10-Apr-20 18:33 35.431933 -119.051654 135 494ft 20kts
10-Apr-20 18:34 35.426615 -119.045229 133 482ft 18kts
10-Apr-20 18:35 35.424605 -119.046435 227 472ft 0kts
10-Apr-20 18:36 35.424605 -119.046436 227 472ft 0kts
10-Apr-20 18:37 35.424605 -119.046435 227 472ft 0kts
10-Apr-20 18:38 35.424605 -119.046435 227 472ft 0kts
10-Apr-20 18:39 35.425861 -119.046543 313 477ft 37kts
10-Apr-20 18:40 35.439161 -119.065688 300 1236ft 79kts
10-Apr-20 18:41 35.445033 -119.055899 130 2138ft 88kts
10-Apr-20 18:42 35.427757 -119.032718 125 2941ft 96kts
10-Apr-20 18:43 35.413676 -119.005300 115 3731ft 96kts
10-Apr-20 18:44 35.400164 -118.976834 114 4456ft 98kts
10-Apr-20 18:45 35.387803 -118.946732 109 5137ft 99kts
10-Apr-20 18:46 35.374719 -118.915025 113 5499ft 123kts
10-Apr-20 18:47 35.360056 -118.877170 110 5534ft 124kts
10-Apr-20 18:48 35.344465 -118.838780 111 5515ft 124kts
10-Apr-20 18:49 35.329340 -118.800528 111 5507ft 125kts
10-Apr-20 18:50 35.313208 -118.762757 115 5503ft 125kts
10-Apr-20 18:51 35.297094 -118.725012 112 5493ft 125kts
10-Apr-20 18:52 35.280606 -118.687530 112 5485ft 125kts
10-Apr-20 18:53 35.265067 -118.649389 105 5491ft 123kts
10-Apr-20 18:54 35.252568 -118.610157 110 5494ft 124kts
10-Apr-20 18:55 35.238186 -118.571462 113 5502ft 125kts
10-Apr-20 18:56 35.222503 -118.533575 111 5512ft 125kts
10-Apr-20 18:57 35.206399 -118.496294 130 5476ft 127kts
10-Apr-20 18:58 35.180133 -118.468386 137 5551ft 122kts
10-Apr-20 18:59 35.158179 -118.441726 120 6123ft 99kts
10-Apr-20 19:00 35.148673 -118.412450 94 6861ft 83kts
10-Apr-20 19:01 35.142339 -118.381446 110 7272ft 108kts
10-Apr-20 19:02 35.127278 -118.346187 112 7124ft 115kts
10-Apr-20 19:03 35.114992 -118.314096 114 6384ft 95kts
10-Apr-20 19:04 35.103125 -118.284597 113 5675ft 97kts
10-Apr-20 19:05 35.093600 -118.254602 101 4908ft 91kts
10-Apr-20 19:06 35.082555 -118.227118 109 4242ft 92kts
10-Apr-20 19:07 35.065314 -118.205960 139 3860ft 92kts
10-Apr-20 19:08 35.047297 -118.184943 123 3887ft 97kts
10-Apr-20 19:09 35.026809 -118.158720 134 3767ft 105kts
10-Apr-20 19:10 35.024532 -118.137020 42 3477ft 65kts
10-Apr-20 19:11 35.039118 -118.125206 342 3098ft 62kts
10-Apr-20 19:12 35.050701 -118.138133 316 2705ft 30kts
10-Apr-20 19:13 35.055759 -118.144231 319 2730ft 23kts
10-Apr-20 19:14 35.057579 -118.147752 272 2741ft 0kts
10-Apr-20 19:15 35.056947 -118.148108 133 2740ft 1kts
10-Apr-20 19:16 35.051759 -118.142248 217 2715ft 15kts
10-Apr-20 19:17 35.049223 -118.149050 269 2724ft 17kts
10-Apr-20 19:18 35.050326 -118.150085 359 2728ft 22kts
10-Apr-20 19:19 35.051147 -118.150079 177 2732ft 0kts
10-Apr-20 19:20 35.051147 -118.150079 177 2732ft 0kts
10-Apr-20 19:21 35.051147 -118.150079 177 2732ft 0kts
10-Apr-20 19:22 35.051147 -118.150079 177 2732ft 0kts
10-Apr-20 19:23 35.051147 -118.150079 177 2732ft 0kts
10-Apr-20 19:24 35.051147 -118.150079 177 2732ft 0kts
10-Apr-20 19:25 35.051147 -118.150079 177 2732ft 0kts

Navigation Log

Ident Type
Flight plan parsing failed, navigation log unavailable